Time;durP1;ratioP1;P1;durP2;ratioP2;P2;SDS_P1;SDS_P2;PMS_P1;PMS_P2;Temp;Humidity;BMP_temperature;BMP_pressure;BME280_temperature;BME280_humidity;BME280_pressure;Samples;Min_cycle;Max_cycle;Signal;HPM_P1;HPM_P2
2022/10/03 00:01:28;;;;;;;0.00;0.00;;;;;;;;;;5014439;28;20099;-85
2022/10/03 00:04:09;;;;;;;0.00;0.00;;;;;;;;;;5030868;28;20047;-84
2022/10/03 00:06:41;;;;;;;0.00;0.00;;;;;;;;;;5014613;28;20512;-85
2022/10/03 00:09:20;;;;;;;0.00;0.00;;;;;;;;;;5014986;28;20037;-84
2022/10/03 00:12:04;;;;;;;0.00;0.00;;;;;;;;;;5030814;28;20099;-85
2022/10/03 00:14:43;;;;;;;0.00;0.00;;;;;;;;;;5014262;28;20077;-84
2022/10/03 00:17:15;;;;;;;0.00;0.00;;;;;;;;;;5014574;28;20385;-85
2022/10/03 00:20:04;;;;;;;0.00;0.00;;;;;;;;;;5030823;28;20056;-84
2022/10/03 00:22:36;;;;;;;0.00;0.00;;;;;;;;;;4998128;28;20374;-84
2022/10/03 00:25:22;;;;;;;0.00;0.00;;;;;;;;;;5034433;28;20041;-84
2022/10/03 00:28:09;;;;;;;0.00;0.00;;;;;;;;;;5034071;28;20042;-84
2022/10/03 00:31:01;;;;;;;0.00;0.00;;;;;;;;;;5017884;28;20175;-84
2022/10/03 00:33:39;;;;;;;0.00;0.00;;;;;;;;;;5004660;28;20056;-84
2022/10/03 00:36:24;;;;;;;0.00;0.00;;;;;;;;;;5033982;28;20515;-85
2022/10/03 00:39:05;;;;;;;0.00;0.00;;;;;;;;;;5034111;28;20503;-85
2022/10/03 00:41:47;;;;;;;0.00;0.00;;;;;;;;;;5033818;28;20440;-85
2022/10/03 00:44:29;;;;;;;0.00;0.00;;;;;;;;;;5033931;28;20432;-85
2022/10/03 00:47:10;;;;;;;0.00;0.00;;;;;;;;;;5033814;28;20041;-84
2022/10/03 00:49:55;;;;;;;0.00;0.00;;;;;;;;;;5034107;28;20084;-84
2022/10/03 00:52:21;;;;;;;0.00;0.00;;;;;;;;;;5017476;28;20080;-85
2022/10/03 00:54:51;;;;;;;0.00;0.00;;;;;;;;;;5033688;28;20449;-85
2022/10/03 00:57:36;;;;;;;0.00;0.00;;;;;;;;;;5033223;28;20058;-84
2022/10/03 01:00:15;;;;;;;0.00;0.00;;;;;;;;;;5017562;28;20044;-85
2022/10/03 01:03:00;;;;;;;0.00;0.00;;;;;;;;;;5033671;28;20038;-85
2022/10/03 01:05:26;;;;;;;0.00;0.00;;;;;;;;;;5017140;28;20038;-84
2022/10/03 01:07:59;;;;;;;0.00;0.00;;;;;;;;;;5033334;28;20045;-84
2022/10/03 01:10:31;;;;;;;0.00;0.00;;;;;;;;;;5033559;28;20045;-83
2022/10/03 01:13:17;;;;;;;0.00;0.00;;;;;;;;;;5033327;28;20037;-84
2022/10/03 01:16:02;;;;;;;0.00;0.00;;;;;;;;;;4994242;28;20221;-84
2022/10/03 01:18:31;;;;;;;0.00;0.00;;;;;;;;;;5033178;28;20488;-84
2022/10/03 01:21:02;;;;;;;0.00;0.00;;;;;;;;;;5033399;28;20046;-84
2022/10/03 01:23:34;;;;;;;0.00;0.00;;;;;;;;;;5033057;28;20037;-85
2022/10/03 01:26:06;;;;;;;0.00;0.00;;;;;;;;;;5033184;28;20037;-85
2022/10/03 01:31:24;;;;;;;0.00;0.00;;;;;;;;;;5033167;28;20053;-84
2022/10/03 01:33:54;;;;;;;0.00;0.00;;;;;;;;;;5032247;28;20404;-84
2022/10/03 01:36:25;;;;;;;0.00;0.00;;;;;;;;;;5032963;28;20048;-84
2022/10/03 01:39:00;;;;;;;0.00;0.00;;;;;;;;;;5032703;28;20034;-84
2022/10/03 01:41:37;;;;;;;0.00;0.00;;;;;;;;;;5016290;28;20183;-84
2022/10/03 01:44:11;;;;;;;0.00;0.00;;;;;;;;;;5032966;28;20481;-85
2022/10/03 01:46:47;;;;;;;0.00;0.00;;;;;;;;;;5016334;28;20130;-85
2022/10/03 01:49:20;;;;;;;0.00;0.00;;;;;;;;;;5032792;28;20111;-85
2022/10/03 01:51:52;;;;;;;0.00;0.00;;;;;;;;;;5032881;28;20037;-84
2022/10/03 01:54:25;;;;;;;0.00;0.00;;;;;;;;;;5032736;28;20397;-84
2022/10/03 01:57:01;;;;;;;0.00;0.00;;;;;;;;;;5016431;28;20048;-83
2022/10/03 01:59:47;;;;;;;0.00;0.00;;;;;;;;;;5032414;28;20041;-84
2022/10/03 02:02:25;;;;;;;0.00;0.00;;;;;;;;;;5032793;28;20659;-85
2022/10/03 02:04:57;;;;;;;0.00;0.00;;;;;;;;;;5032392;28;20041;-85
2022/10/03 02:07:29;;;;;;;0.00;0.00;;;;;;;;;;5032323;28;20077;-84
2022/10/03 02:10:01;;;;;;;0.00;0.00;;;;;;;;;;5015817;28;20046;-84
2022/10/03 02:12:33;;;;;;;0.00;0.00;;;;;;;;;;5032411;28;20477;-84
2022/10/03 02:15:09;;;;;;;0.00;0.00;;;;;;;;;;5016132;28;20049;-84
2022/10/03 02:17:54;;;;;;;0.00;0.00;;;;;;;;;;5032298;28;20565;-85
2022/10/03 02:20:30;;;;;;;0.00;0.00;;;;;;;;;;5015626;28;20131;-85
2022/10/03 02:22:57;;;;;;;0.00;0.00;;;;;;;;;;5032127;28;20076;-85
2022/10/03 02:25:30;;;;;;;0.00;0.00;;;;;;;;;;5032152;28;20045;-84
2022/10/03 02:28:04;;;;;;;0.00;0.00;;;;;;;;;;5015456;28;20045;-85
2022/10/03 02:30:42;;;;;;;0.00;0.00;;;;;;;;;;5032153;28;20121;-85
2022/10/03 02:33:22;;;;;;;0.00;0.00;;;;;;;;;;5031766;28;20041;-85
2022/10/03 02:35:51;;;;;;;0.00;0.00;;;;;;;;;;5032108;28;20443;-84
2022/10/03 02:38:29;;;;;;;0.00;0.00;;;;;;;;;;5015080;28;20045;-85
2022/10/03 02:41:14;;;;;;;0.00;0.00;;;;;;;;;;5015353;28;20048;-85
2022/10/03 02:43:43;;;;;;;0.00;0.00;;;;;;;;;;5031468;28;20037;-85
2022/10/03 02:46:20;;;;;;;0.00;0.00;;;;;;;;;;5031846;28;20464;-85
2022/10/03 02:48:49;;;;;;;0.00;0.00;;;;;;;;;;5031518;28;20083;-85
2022/10/03 02:51:21;;;;;;;0.00;0.00;;;;;;;;;;5031699;28;20128;-85
2022/10/03 02:54:05;;;;;;;0.00;0.00;;;;;;;;;;5031648;28;20112;-84
2022/10/03 02:56:48;;;;;;;0.00;0.00;;;;;;;;;;5031697;28;20042;-84
2022/10/03 02:59:14;;;;;;;0.00;0.00;;;;;;;;;;5031047;28;20140;-84
2022/10/03 03:01:50;;;;;;;0.00;0.00;;;;;;;;;;5031867;28;20142;-84
2022/10/03 03:04:41;;;;;;;0.00;0.00;;;;;;;;;;5031499;28;20469;-84
2022/10/03 03:07:25;;;;;;;0.00;0.00;;;;;;;;;;5031693;28;20037;-85
2022/10/03 03:10:04;;;;;;;0.00;0.00;;;;;;;;;;5014813;28;20443;-84
2022/10/03 03:12:49;;;;;;;0.00;0.00;;;;;;;;;;5031425;28;20056;-85
2022/10/03 03:15:27;;;;;;;0.00;0.00;;;;;;;;;;5015159;28;20424;-86
2022/10/03 03:18:03;;;;;;;0.00;0.00;;;;;;;;;;5031203;28;20049;-85
2022/10/03 03:20:29;;;;;;;0.00;0.00;;;;;;;;;;5015199;28;20115;-85
2022/10/03 03:23:06;;;;;;;0.00;0.00;;;;;;;;;;5031186;28;20053;-85
2022/10/03 03:25:51;;;;;;;0.00;0.00;;;;;;;;;;5015120;28;20040;-84
2022/10/03 03:28:36;;;;;;;0.00;0.00;;;;;;;;;;5031418;28;20069;-84
2022/10/03 03:31:17;;;;;;;0.00;0.00;;;;;;;;;;5031327;28;20038;-85
2022/10/03 03:33:43;;;;;;;0.00;0.00;;;;;;;;;;5031042;28;20485;-84
2022/10/03 03:36:16;;;;;;;0.00;0.00;;;;;;;;;;5031265;28;20120;-84
2022/10/03 03:38:48;;;;;;;0.00;0.00;;;;;;;;;;5031065;28;20042;-84
2022/10/03 03:41:21;;;;;;;0.00;0.00;;;;;;;;;;5031476;28;20045;-85
2022/10/03 03:43:54;;;;;;;0.00;0.00;;;;;;;;;;5031035;28;20046;-85
2022/10/03 03:46:29;;;;;;;0.00;0.00;;;;;;;;;;5031239;28;20041;-86
2022/10/03 03:49:08;;;;;;;0.00;0.00;;;;;;;;;;5030883;28;20053;-84
2022/10/03 03:51:57;;;;;;;0.00;0.00;;;;;;;;;;5014894;28;20049;-85
2022/10/03 03:54:46;;;;;;;0.00;0.00;;;;;;;;;;5030948;28;20190;-85
2022/10/03 03:57:27;;;;;;;0.00;0.00;;;;;;;;;;5034119;28;20049;-86
2022/10/03 04:00:08;;;;;;;0.00;0.00;;;;;;;;;;5034711;28;20424;-85
2022/10/03 04:02:36;;;;;;;0.00;0.00;;;;;;;;;;5034845;28;20120;-87
2022/10/03 04:05:08;;;;;;;0.00;0.00;;;;;;;;;;5034787;28;20052;-86
2022/10/03 04:07:35;;;;;;;0.00;0.00;;;;;;;;;;5035013;28;20103;-86
2022/10/03 04:10:19;;;;;;;0.00;0.00;;;;;;;;;;5034705;28;20115;-86
2022/10/03 04:12:54;;;;;;;0.00;0.00;;;;;;;;;;5034513;28;20037;-85
2022/10/03 04:15:45;;;;;;;0.00;0.00;;;;;;;;;;5018370;28;20385;-86
2022/10/03 04:21:05;;;;;;;0.00;0.00;;;;;;;;;;5034445;28;20128;-86
2022/10/03 04:23:31;;;;;;;0.00;0.00;;;;;;;;;;5017922;28;20068;-86
2022/10/03 04:26:09;;;;;;;0.00;0.00;;;;;;;;;;5017870;28;20045;-86
2022/10/03 04:28:49;;;;;;;0.00;0.00;;;;;;;;;;5017838;28;20107;-86
2022/10/03 04:31:15;;;;;;;0.00;0.00;;;;;;;;;;5017794;28;20102;-84
2022/10/03 04:33:53;;;;;;;0.00;0.00;;;;;;;;;;5033863;28;20045;-85
2022/10/03 04:36:35;;;;;;;0.00;0.00;;;;;;;;;;5017888;28;20496;-85
2022/10/03 04:39:07;;;;;;;0.00;0.00;;;;;;;;;;5033764;28;20038;-85
2022/10/03 04:41:41;;;;;;;0.00;0.00;;;;;;;;;;5034440;28;20038;-85
2022/10/03 04:44:20;;;;;;;0.00;0.00;;;;;;;;;;5017526;28;20370;-85
2022/10/03 04:47:01;;;;;;;0.00;0.00;;;;;;;;;;5034346;28;20064;-85
2022/10/03 04:49:42;;;;;;;0.00;0.00;;;;;;;;;;5017040;28;20044;-84
2022/10/03 04:52:11;;;;;;;0.00;0.00;;;;;;;;;;5033979;28;20068;-85
2022/10/03 04:55:05;;;;;;;0.00;0.00;;;;;;;;;;5033677;28;20555;-84
2022/10/03 04:57:36;;;;;;;0.00;0.00;;;;;;;;;;5031182;28;20045;-85
2022/10/03 05:00:02;;;;;;;0.00;0.00;;;;;;;;;;5033828;28;20471;-84
2022/10/03 05:02:45;;;;;;;0.00;0.00;;;;;;;;;;5017456;28;20123;-85
2022/10/03 05:05:25;;;;;;;0.00;0.00;;;;;;;;;;5017121;28;20091;-90
2022/10/03 05:07:57;;;;;;;0.00;0.00;;;;;;;;;;5034014;28;20049;-84
2022/10/03 05:10:34;;;;;;;0.00;0.00;;;;;;;;;;5033326;28;20052;-85
2022/10/03 05:13:00;;;;;;;0.00;0.00;;;;;;;;;;5033412;28;20504;-84
2022/10/03 05:15:32;;;;;;;0.00;0.00;;;;;;;;;;5033429;28;20041;-84
2022/10/03 05:18:13;;;;;;;0.00;0.00;;;;;;;;;;5033442;28;20037;-85
2022/10/03 05:20:58;;;;;;;0.00;0.00;;;;;;;;;;5033062;28;20043;-85
2022/10/03 05:23:30;;;;;;;0.00;0.00;;;;;;;;;;5033284;28;20067;-85
2022/10/03 05:26:18;;;;;;;0.00;0.00;;;;;;;;;;5032931;28;20162;-85
2022/10/03 05:28:58;;;;;;;0.00;0.00;;;;;;;;;;5033403;28;20042;-86
2022/10/03 05:31:46;;;;;;;0.00;0.00;;;;;;;;;;5032859;28;20049;-86
2022/10/03 05:34:24;;;;;;;0.00;0.00;;;;;;;;;;5032911;28;20128;-87
2022/10/03 05:37:07;;;;;;;0.00;0.00;;;;;;;;;;5016592;28;20041;-87
2022/10/03 05:39:45;;;;;;;0.00;0.00;;;;;;;;;;5032879;28;20056;-84
2022/10/03 05:42:17;;;;;;;0.00;0.00;;;;;;;;;;5033143;28;20124;-85
2022/10/03 05:44:45;;;;;;;0.00;0.00;;;;;;;;;;5033140;28;20119;-87
2022/10/03 05:50:09;;;;;;;0.00;0.00;;;;;;;;;;5033090;28;20521;-87
2022/10/03 05:52:38;;;;;;;0.00;0.00;;;;;;;;;;5016589;28;20077;-86
2022/10/03 05:55:07;;;;;;;0.00;0.00;;;;;;;;;;5016292;28;20045;-86
2022/10/03 05:57:33;;;;;;;0.00;0.00;;;;;;;;;;5032557;28;20501;-85
2022/10/03 06:00:05;;;;;;;0.00;0.00;;;;;;;;;;5032507;28;20045;-86
2022/10/03 06:02:51;;;;;;;0.00;0.00;;;;;;;;;;5015650;28;20034;-89
2022/10/03 06:05:32;;;;;;;0.00;0.00;;;;;;;;;;5015360;28;20477;-85
2022/10/03 06:08:01;;;;;;;0.00;0.00;;;;;;;;;;5015670;28;20043;-85
2022/10/03 06:10:26;;;;;;;0.00;0.00;;;;;;;;;;5045498;28;20037;-85
2022/10/03 06:13:11;;;;;;;0.00;0.00;;;;;;;;;;5051770;28;20381;-85
2022/10/03 06:15:53;;;;;;;0.00;0.00;;;;;;;;;;5034825;28;20068;-85
2022/10/03 06:18:37;;;;;;;0.05;0.05;;;;;;;;;;5051112;28;20041;-84
2022/10/03 06:21:15;;;;;;;0.00;0.00;;;;;;;;;;5051663;28;20485;-84
2022/10/03 06:23:44;;;;;;;0.00;0.00;;;;;;;;;;5035049;28;20037;-85
2022/10/03 06:26:20;;;;;;;0.00;0.00;;;;;;;;;;5051471;28;20033;-85
2022/10/03 06:28:46;;;;;;;;;;;;;;;;;;5035377;28;20041;-85
2022/10/03 06:31:12;;;;;;;0.00;0.00;;;;;;;;;;5051472;28;19924;-85
2022/10/03 06:33:57;;;;;;;0.00;0.00;;;;;;;;;;5016643;28;20045;-84
2022/10/03 06:36:29;;;;;;;0.00;0.00;;;;;;;;;;5031849;28;20052;-85
2022/10/03 06:39:13;;;;;;;0.00;0.00;;;;;;;;;;5014852;28;20038;-85
2022/10/03 06:41:58;;;;;;;0.00;0.00;;;;;;;;;;5031199;28;20049;-85
2022/10/03 06:44:43;;;;;;;0.00;0.00;;;;;;;;;;5031299;28;20055;-86
2022/10/03 06:47:18;;;;;;;0.00;0.00;;;;;;;;;;5031383;28;20030;-86
2022/10/03 06:49:47;;;;;;;0.00;0.00;;;;;;;;;;5032090;28;20476;-85
2022/10/03 06:52:16;;;;;;;0.00;0.00;;;;;;;;;;5031078;28;20516;-85
2022/10/03 06:54:57;;;;;;;0.00;0.00;;;;;;;;;;5014653;28;20124;-85
2022/10/03 06:57:26;;;;;;;0.00;0.00;;;;;;;;;;5030923;28;20412;-85
2022/10/03 06:59:55;;;;;;;0.00;0.00;;;;;;;;;;5040022;28;20053;-85
2022/10/03 07:02:21;;;;;;;0.00;0.00;;;;;;;;;;5014782;28;20092;-85
2022/10/03 07:04:59;;;;;;;0.00;0.00;;;;;;;;;;5014955;28;20412;-84
2022/10/03 07:07:34;;;;;;;0.00;0.00;;;;;;;;;;5014766;28;20041;-87
2022/10/03 07:10:00;;;;;;;;;;;;;;;;;;5031450;28;20049;-86
2022/10/03 07:12:46;;;;;;;0.00;0.00;;;;;;;;;;5031261;28;19924;-86
2022/10/03 07:15:15;;;;;;;0.00;0.00;;;;;;;;;;5030968;28;20120;-85
2022/10/03 07:17:53;;;;;;;0.00;0.00;;;;;;;;;;5030995;28;20037;-85
2022/10/03 07:20:22;;;;;;;0.00;0.00;;;;;;;;;;5030843;28;20045;-86
2022/10/03 07:23:07;;;;;;;0.00;0.00;;;;;;;;;;5030891;28;20116;-86
2022/10/03 07:25:49;;;;;;;0.00;0.00;;;;;;;;;;5030906;28;20052;-86
2022/10/03 07:28:21;;;;;;;0.00;0.00;;;;;;;;;;5014766;28;20485;-85
2022/10/03 07:30:47;;;;;;;0.00;0.00;;;;;;;;;;5033298;28;20046;-84
2022/10/03 07:33:22;;;;;;;0.00;0.00;;;;;;;;;;5034926;28;20038;-85
2022/10/03 07:39:05;;;;;;;0.00;0.00;;;;;;;;;;5035040;28;20072;-85
2022/10/03 07:41:46;;;;;;;0.00;0.00;;;;;;;;;;5018197;28;20041;-85
2022/10/03 07:44:31;;;;;;;0.00;0.00;;;;;;;;;;5034853;28;20037;-86
2022/10/03 07:47:32;;;;;;;0.00;0.00;;;;;;;;;;5012550;28;20069;-84
2022/10/03 07:50:22;;;;;;;0.00;0.00;;;;;;;;;;5034649;28;20387;-85
2022/10/03 07:53:07;;;;;;;0.00;0.00;;;;;;;;;;5034599;28;20052;-85
2022/10/03 07:55:59;;;;;;;0.00;0.00;;;;;;;;;;5034107;28;20428;-85
2022/10/03 07:58:34;;;;;;;0.00;0.00;;;;;;;;;;5034406;28;20061;-86
2022/10/03 08:01:08;;;;;;;0.00;0.00;;;;;;;;;;5038342;28;20040;-86
2022/10/03 08:04:02;;;;;;;0.00;0.00;;;;;;;;;;5054549;28;20052;-86
2022/10/03 08:06:34;;;;;;;0.00;0.00;;;;;;;;;;5054081;28;20047;-86
2022/10/03 08:09:10;;;;;;;0.00;0.00;;;;;;;;;;5054593;28;20067;-86
2022/10/03 08:11:47;;;;;;;0.00;0.00;;;;;;;;;;5054610;28;20052;-86
2022/10/03 08:14:19;;;;;;;0.00;0.00;;;;;;;;;;5035052;28;20041;-86
2022/10/03 08:16:51;;;;;;;0.00;0.00;;;;;;;;;;5034479;28;20556;-88
2022/10/03 08:19:20;;;;;;;0.00;0.00;;;;;;;;;;5034700;28;20045;-85
2022/10/03 08:21:56;;;;;;;0.00;0.00;;;;;;;;;;5036810;28;20175;-92
2022/10/03 08:24:40;;;;;;;0.00;0.00;;;;;;;;;;5017430;28;20045;-87
2022/10/03 08:27:06;;;;;;;0.00;0.00;;;;;;;;;;5017942;28;20095;-87
2022/10/03 08:29:51;;;;;;;0.00;0.00;;;;;;;;;;5034395;28;20041;-87
2022/10/03 08:32:17;;;;;;;0.00;0.00;;;;;;;;;;5034096;28;20037;-88
2022/10/03 08:35:02;;;;;;;0.00;0.00;;;;;;;;;;5034325;28;20481;-86
2022/10/03 08:37:28;;;;;;;0.00;0.00;;;;;;;;;;5033994;28;20033;-86
2022/10/03 08:39:55;;;;;;;0.00;0.00;;;;;;;;;;5034270;28;20045;-87
2022/10/03 08:42:39;;;;;;;0.00;0.00;;;;;;;;;;5033457;28;20080;-87
2022/10/03 08:45:05;;;;;;;0.00;0.00;;;;;;;;;;5034145;28;20077;-86
2022/10/03 08:47:50;;;;;;;0.00;0.00;;;;;;;;;;5034077;28;20088;-86
2022/10/03 08:50:16;;;;;;;0.00;0.00;;;;;;;;;;5017466;28;20041;-86
2022/10/03 08:53:04;;;;;;;0.00;0.00;;;;;;;;;;5017301;28;20558;-87
2022/10/03 08:55:33;;;;;;;0.00;0.00;;;;;;;;;;5034011;28;20096;-85
2022/10/03 08:58:12;;;;;;;0.00;0.00;;;;;;;;;;5033272;28;20057;-81
2022/10/03 09:01:04;;;;;;;0.00;0.00;;;;;;;;;;5033986;28;20081;-85
2022/10/03 09:03:40;;;;;;;0.00;0.00;;;;;;;;;;5033494;28;20041;-85
2022/10/03 09:06:12;;;;;;;0.00;0.00;;;;;;;;;;5033549;28;20037;-86
2022/10/03 09:08:38;;;;;;;0.00;0.00;;;;;;;;;;5017598;28;20068;-85
2022/10/03 09:11:19;;;;;;;0.00;0.00;;;;;;;;;;5033571;28;20481;-86
2022/10/03 09:13:48;;;;;;;0.00;0.00;;;;;;;;;;5017266;28;20128;-86
2022/10/03 09:16:14;;;;;;;0.00;0.00;;;;;;;;;;5016833;28;20041;-86
2022/10/03 09:18:51;;;;;;;0.00;0.00;;;;;;;;;;5033479;28;20045;-85
2022/10/03 09:21:36;;;;;;;0.00;0.00;;;;;;;;;;5033567;28;20552;-87
2022/10/03 09:24:23;;;;;;;0.00;0.00;;;;;;;;;;5033830;28;20041;-86
2022/10/03 09:26:50;;;;;;;0.00;0.00;;;;;;;;;;5033445;28;20457;-86
2022/10/03 09:29:34;;;;;;;0.00;0.00;;;;;;;;;;5033158;28;20080;-86
2022/10/03 09:32:19;;;;;;;0.00;0.00;;;;;;;;;;5016930;28;20080;-87
2022/10/03 09:34:51;;;;;;;0.00;0.00;;;;;;;;;;5016768;28;20409;-85
2022/10/03 09:37:36;;;;;;;0.00;0.00;;;;;;;;;;5033111;28;20496;-87
2022/10/03 09:40:08;;;;;;;0.00;0.00;;;;;;;;;;5016418;28;20049;-87
2022/10/03 09:42:52;;;;;;;0.00;0.00;;;;;;;;;;5016235;28;20037;-84
2022/10/03 09:45:21;;;;;;;0.00;0.00;;;;;;;;;;5032445;28;20049;-84
2022/10/03 09:47:47;;;;;;;0.00;0.00;;;;;;;;;;5016154;28;20504;-86
2022/10/03 09:50:35;;;;;;;0.00;0.00;;;;;;;;;;5032629;28;20033;-86
2022/10/03 09:53:26;;;;;;;0.00;0.00;;;;;;;;;;5015779;28;20092;-87
2022/10/03 09:56:18;;;;;;;0.00;0.00;;;;;;;;;;5033172;28;20186;-86
2022/10/03 09:58:53;;;;;;;0.00;0.00;;;;;;;;;;5015746;28;20062;-86
2022/10/03 10:01:38;;;;;;;0.00;0.00;;;;;;;;;;5016293;28;20416;-85
2022/10/03 10:04:07;;;;;;;0.00;0.00;;;;;;;;;;5032305;28;20123;-88
2022/10/03 10:06:42;;;;;;;0.00;0.00;;;;;;;;;;5016925;28;20091;-89
2022/10/03 10:09:18;;;;;;;0.00;0.00;;;;;;;;;;5033052;28;20041;-89
2022/10/03 10:12:03;;;;;;;0.00;0.00;;;;;;;;;;5016803;28;20079;-89
2022/10/03 10:14:36;;;;;;;;;;;;;;;;;;5111936;27;20384;-88
2022/10/03 10:17:03;;;;;;;0.00;0.00;;;;;;;;;;5110067;28;20432;-86
2022/10/03 10:20:00;;;;;;;0.00;0.00;;;;;;;;;;5110072;28;20043;-88
2022/10/03 10:22:39;;;;;;;0.00;0.00;;;;;;;;;;5101739;28;20051;-88
2022/10/03 10:25:19;;;;;;;0.00;0.00;;;;;;;;;;5092905;28;20256;-88
2022/10/03 10:28:03;;;;;;;0.00;0.00;;;;;;;;;;5092442;28;20036;-88
2022/10/03 10:30:48;;;;;;;0.00;0.00;;;;;;;;;;5108752;28;20390;-90
2022/10/03 10:33:33;;;;;;;0.00;0.00;;;;;;;;;;5109021;28;20040;-87
2022/10/03 10:36:10;;;;;;;0.00;0.00;;;;;;;;;;5109145;28;20111;-87
2022/10/03 10:38:55;;;;;;;0.00;0.00;;;;;;;;;;5109208;28;20392;-87
2022/10/03 10:41:39;;;;;;;0.00;0.00;;;;;;;;;;5092190;28;20543;-87
2022/10/03 10:44:24;;;;;;;0.00;0.00;;;;;;;;;;5091896;28;20047;-87
2022/10/03 10:47:06;;;;;;;0.00;0.00;;;;;;;;;;5092137;28;20048;-88
2022/10/03 10:49:51;;;;;;;0.00;0.00;;;;;;;;;;5108747;28;20460;-87
2022/10/03 10:52:26;;;;;;;0.00;0.00;;;;;;;;;;5108691;28;20376;-87
2022/10/03 10:54:55;;;;;;;0.00;0.00;;;;;;;;;;5108724;28;20040;-87
2022/10/03 10:57:25;;;;;;;0.00;0.00;;;;;;;;;;5091973;28;20047;-87
2022/10/03 11:00:11;;;;;;;0.00;0.00;;;;;;;;;;5108808;28;20480;-87
2022/10/03 11:02:40;;;;;;;0.00;0.00;;;;;;;;;;5109497;28;20135;-87
2022/10/03 11:05:21;;;;;;;0.00;0.00;;;;;;;;;;5091893;28;20127;-88
2022/10/03 11:08:12;;;;;;;0.00;0.00;;;;;;;;;;5092016;28;20090;-87
2022/10/03 11:10:58;;;;;;;0.00;0.00;;;;;;;;;;5108781;28;20399;-87
2022/10/03 11:13:43;;;;;;;0.00;0.00;;;;;;;;;;5091283;28;20052;-87
2022/10/03 11:16:28;;;;;;;0.00;0.00;;;;;;;;;;5091719;28;20051;-90
2022/10/03 11:19:06;;;;;;;5.53;0.23;;;;;;;;;;5109433;28;20386;-89
2022/10/03 11:21:38;;;;;;;0.00;0.00;;;;;;;;;;5108909;28;20035;-89
2022/10/03 11:24:12;;;;;;;0.00;0.00;;;;;;;;;;5105891;28;20054;-89
2022/10/03 11:26:41;;;;;;;0.00;0.00;;;;;;;;;;5078485;28;20101;-89
2022/10/03 11:29:07;;;;;;;0.00;0.00;;;;;;;;;;5094752;28;20044;-87
2022/10/03 11:31:52;;;;;;;0.00;0.00;;;;;;;;;;5095248;28;20101;-87
2022/10/03 11:34:37;;;;;;;0.00;0.00;;;;;;;;;;5094373;28;20043;-88
2022/10/03 11:37:18;;;;;;;0.00;0.00;;;;;;;;;;5077682;28;20051;-88
2022/10/03 11:40:03;;;;;;;0.00;0.00;;;;;;;;;;5077874;28;20036;-89
2022/10/03 11:42:49;;;;;;;0.00;0.00;;;;;;;;;;5094570;28;20116;-89
2022/10/03 11:45:35;;;;;;;0.00;0.00;;;;;;;;;;5094509;28;20044;-89
2022/10/03 11:48:01;;;;;;;;;;;;;;;;;;5094761;28;20044;-88
2022/10/03 11:50:28;;;;;;;;;;;;;;;;;;5095104;28;19968;-89
2022/10/03 11:52:57;;;;;;;0.00;0.00;;;;;;;;;;5094730;28;20425;-91
2022/10/03 11:55:44;;;;;;;0.00;0.00;;;;;;;;;;5077764;28;20039;-88
2022/10/03 11:58:34;;;;;;;0.00;0.00;;;;;;;;;;5077394;28;20036;-88
2022/10/03 12:01:18;;;;;;;0.00;0.00;;;;;;;;;;5088953;28;20044;-88
2022/10/03 12:04:00;;;;;;;0.00;0.00;;;;;;;;;;5094234;28;20048;-88
2022/10/03 12:09:32;;;;;;;0.00;0.00;;;;;;;;;;5093695;28;20387;-87
2022/10/03 12:12:18;;;;;;;0.00;0.00;;;;;;;;;;5093710;28;20051;-88
2022/10/03 12:14:47;;;;;;;0.00;0.00;;;;;;;;;;5093727;28;20451;-85
2022/10/03 12:17:22;;;;;;;0.00;0.00;;;;;;;;;;5092373;28;20505;-85
2022/10/03 12:19:48;;;;;;;0.00;0.00;;;;;;;;;;5093305;28;20078;-84
2022/10/03 12:22:17;;;;;;;0.00;0.00;;;;;;;;;;5093431;28;20125;-85
2022/10/03 12:24:44;;;;;;;0.00;0.00;;;;;;;;;;5076652;28;20459;-85
2022/10/03 12:27:10;;;;;;;0.00;0.00;;;;;;;;;;5093650;28;20046;-87
2022/10/03 12:29:38;;;;;;;0.00;0.00;;;;;;;;;;5093708;28;20032;-87
2022/10/03 12:32:23;;;;;;;0.00;0.00;;;;;;;;;;5093756;28;20047;-88
2022/10/03 12:34:56;;;;;;;0.00;0.00;;;;;;;;;;5096510;28;20051;-88
2022/10/03 12:37:22;;;;;;;0.00;0.00;;;;;;;;;;5094843;28;20044;-89
2022/10/03 12:39:51;;;;;;;0.00;0.00;;;;;;;;;;5095754;28;20129;-88
2022/10/03 12:42:21;;;;;;;0.00;0.00;;;;;;;;;;5078690;28;20079;-88
2022/10/03 12:44:58;;;;;;;0.00;0.00;;;;;;;;;;5076665;28;20398;-87
2022/10/03 12:47:44;;;;;;;0.00;0.00;;;;;;;;;;5076320;28;20036;-88
2022/10/03 12:50:23;;;;;;;0.00;0.00;;;;;;;;;;5076038;28;20044;-87
2022/10/03 12:52:56;;;;;;;0.00;0.00;;;;;;;;;;5092871;28;20040;-87
2022/10/03 12:55:26;;;;;;;0.00;0.00;;;;;;;;;;5076050;28;20044;-88
2022/10/03 12:58:07;;;;;;;0.00;0.00;;;;;;;;;;5092628;28;20044;-88
2022/10/03 13:00:36;;;;;;;0.00;0.00;;;;;;;;;;5092617;28;20040;-88
2022/10/03 13:03:19;;;;;;;0.00;0.00;;;;;;;;;;5092702;28;20122;-88
2022/10/03 13:05:55;;;;;;;0.00;0.00;;;;;;;;;;5092417;28;20058;-89
2022/10/03 13:08:37;;;;;;;0.00;0.00;;;;;;;;;;5092882;28;20040;-88
2022/10/03 13:11:24;;;;;;;0.00;0.00;;;;;;;;;;5092844;28;20040;-87
2022/10/03 13:14:06;;;;;;;0.00;0.00;;;;;;;;;;5075060;28;20386;-88
2022/10/03 13:16:37;;;;;;;0.00;0.00;;;;;;;;;;5092423;28;20076;-88
2022/10/03 13:19:14;;;;;;;0.00;0.00;;;;;;;;;;5092217;28;20097;-88
2022/10/03 13:22:02;;;;;;;0.00;0.00;;;;;;;;;;5092749;28;20044;-88
2022/10/03 13:24:31;;;;;;;0.00;0.00;;;;;;;;;;5075428;28;20046;-89
2022/10/03 13:27:23;;;;;;;0.00;0.00;;;;;;;;;;5074880;28;20044;-87
2022/10/03 13:30:08;;;;;;;0.00;0.00;;;;;;;;;;5092781;28;20039;-87
2022/10/03 13:32:34;;;;;;;0.00;0.00;;;;;;;;;;5075641;28;20499;-88
2022/10/03 13:38:11;;;;;;;0.00;0.00;;;;;;;;;;5092340;28;20044;-88
2022/10/03 13:40:42;;;;;;;0.00;0.00;;;;;;;;;;5090892;28;20097;-86
2022/10/03 13:43:14;;;;;;;0.00;0.00;;;;;;;;;;5092558;28;20044;-86
2022/10/03 13:45:43;;;;;;;0.00;0.00;;;;;;;;;;5092195;28;20097;-91
2022/10/03 13:48:14;;;;;;;0.00;0.00;;;;;;;;;;5075740;28;20090;-88
2022/10/03 13:50:41;;;;;;;0.00;0.00;;;;;;;;;;5091913;28;20394;-87
2022/10/03 13:53:26;;;;;;;0.00;0.00;;;;;;;;;;5075198;28;20040;-88
2022/10/03 13:55:57;;;;;;;0.00;0.00;;;;;;;;;;5091821;28;20421;-86
2022/10/03 13:58:26;;;;;;;0.00;0.00;;;;;;;;;;5092335;28;20126;-88
2022/10/03 14:01:00;;;;;;;0.00;0.00;;;;;;;;;;5075520;28;20040;-88
2022/10/03 14:03:29;;;;;;;0.00;0.00;;;;;;;;;;5075386;28;20035;-87
2022/10/03 14:06:14;;;;;;;0.00;0.00;;;;;;;;;;5091873;28;20051;-88
2022/10/03 14:08:43;;;;;;;0.00;0.00;;;;;;;;;;5091369;28;20471;-89
2022/10/03 14:11:24;;;;;;;0.00;0.00;;;;;;;;;;5092035;28;20359;-89
2022/10/03 14:13:56;;;;;;;0.00;0.00;;;;;;;;;;5092128;28;20048;-88
2022/10/03 14:16:30;;;;;;;0.00;0.00;;;;;;;;;;5092218;28;20044;-89
2022/10/03 14:19:17;;;;;;;0.00;0.00;;;;;;;;;;5092455;28;20047;-89
2022/10/03 14:21:48;;;;;;;0.00;0.00;;;;;;;;;;5092305;28;20032;-89
2022/10/03 14:24:32;;;;;;;0.00;0.00;;;;;;;;;;5092661;28;20040;-89
2022/10/03 14:27:11;;;;;;;0.00;0.00;;;;;;;;;;5074573;28;20105;-90
2022/10/03 14:29:36;;;;;;;0.00;0.00;;;;;;;;;;5091957;28;20126;-85
2022/10/03 14:32:21;;;;;;;0.00;0.00;;;;;;;;;;5092704;28;20071;-87
2022/10/03 14:35:13;;;;;;;0.00;0.00;;;;;;;;;;5091489;28;20127;-88
2022/10/03 14:37:51;;;;;;;0.00;0.00;;;;;;;;;;5073035;28;20395;-87
2022/10/03 14:40:21;;;;;;;0.00;0.00;;;;;;;;;;5091468;28;20066;-87
2022/10/03 14:43:05;;;;;;;0.00;0.00;;;;;;;;;;5091377;28;20123;-87
2022/10/03 14:45:39;;;;;;;0.00;0.00;;;;;;;;;;5091265;28;20502;-87
2022/10/03 14:48:11;;;;;;;0.00;0.00;;;;;;;;;;5074739;28;20102;-87
2022/10/03 14:50:38;;;;;;;0.00;0.00;;;;;;;;;;5074645;28;20137;-87
2022/10/03 14:53:07;;;;;;;0.00;0.00;;;;;;;;;;5091379;28;20044;-88
2022/10/03 14:55:37;;;;;;;0.00;0.00;;;;;;;;;;5074485;28;20399;-87
2022/10/03 14:58:33;;;;;;;0.00;0.00;;;;;;;;;;5074438;28;20036;-87
2022/10/03 15:01:06;;;;;;;0.00;0.00;;;;;;;;;;5068901;28;20048;-89
2022/10/03 15:03:36;;;;;;;0.00;0.00;;;;;;;;;;5078288;28;20290;-89
2022/10/03 15:06:12;;;;;;;0.00;0.00;;;;;;;;;;5095732;28;20051;-89
2022/10/03 15:08:41;;;;;;;0.00;0.00;;;;;;;;;;5078577;28;20040;-88
2022/10/03 15:11:11;;;;;;;0.00;0.00;;;;;;;;;;5077917;28;20084;-88
2022/10/03 15:13:50;;;;;;;0.00;0.00;;;;;;;;;;5078051;28;20132;-88
2022/10/03 15:16:19;;;;;;;0.00;0.00;;;;;;;;;;5078221;28;20036;-86
2022/10/03 15:18:50;;;;;;;0.00;0.00;;;;;;;;;;5078107;28;20043;-87
2022/10/03 15:21:16;;;;;;;0.00;0.00;;;;;;;;;;5077607;28;20036;-87
2022/10/03 15:23:43;;;;;;;0.00;0.00;;;;;;;;;;5094609;28;20040;-87
2022/10/03 15:26:14;;;;;;;0.00;0.00;;;;;;;;;;5094436;28;20048;-87
2022/10/03 15:28:43;;;;;;;0.00;0.00;;;;;;;;;;5077661;28;20565;-87
2022/10/03 15:31:14;;;;;;;0.00;0.00;;;;;;;;;;5094265;28;20079;-86
2022/10/03 15:33:42;;;;;;;0.00;0.00;;;;;;;;;;5077420;28;20038;-86
2022/10/03 15:36:17;;;;;;;0.00;0.00;;;;;;;;;;5094549;28;20503;-88
2022/10/03 15:38:45;;;;;;;0.00;0.00;;;;;;;;;;5094757;28;20036;-87
2022/10/03 15:41:12;;;;;;;0.00;0.00;;;;;;;;;;5094182;28;20047;-88
2022/10/03 15:43:48;;;;;;;0.00;0.00;;;;;;;;;;5094455;28;20047;-88
2022/10/03 15:46:27;;;;;;;0.00;0.00;;;;;;;;;;5093627;28;20548;-88
2022/10/03 15:48:53;;;;;;;0.00;0.00;;;;;;;;;;5094799;28;20406;-87
2022/10/03 15:51:23;;;;;;;0.00;0.00;;;;;;;;;;5077356;28;20048;-87
2022/10/03 15:53:50;;;;;;;0.00;0.00;;;;;;;;;;5077573;28;20044;-88
2022/10/03 15:56:23;;;;;;;0.00;0.00;;;;;;;;;;5076984;28;20090;-86
2022/10/03 15:58:51;;;;;;;0.00;0.00;;;;;;;;;;5070844;28;20131;-88